Time;durP1;ratioP1;P1;durP2;ratioP2;P2;SDS_P1;SDS_P2;PMS_P1;PMS_P2;Temp;Humidity;BMP_temperature;BMP_pressure;BME280_temperature;BME280_humidity;BME280_pressure;Samples;Min_cycle;Max_cycle;Signal;HPM_P1;HPM_P2
2022/08/08 00:00:10;;;;;;;4.93;2.97;;;;;;;;;;5028653;28;20035;-59
2022/08/08 00:03:00;;;;;;;4.13;3.20;;;;;;;;;;5023358;28;20036;-59
2022/08/08 00:06:00;;;;;;;4.13;3.00;;;;;;;;;;5027284;28;20104;-59
2022/08/08 00:08:40;;;;;;;5.68;2.70;;;;;;;;;;5025005;28;20042;-59
2022/08/08 00:11:16;;;;;;;3.92;3.00;;;;;;;;;;5028425;28;20025;-59
2022/08/08 00:13:50;;;;;;;3.65;3.08;;;;;;;;;;5030898;28;20055;-58
2022/08/08 00:16:22;;;;;;;4.82;3.30;;;;;;;;;;5032975;28;20044;-58
2022/08/08 00:19:26;;;;;;;3.80;3.33;;;;;;;;;;5032441;28;20068;-58
2022/08/08 00:22:16;;;;;;;6.25;3.33;;;;;;;;;;5024915;28;20156;-58
2022/08/08 00:24:47;;;;;;;3.13;2.83;;;;;;;;;;5032231;28;20030;-58
2022/08/08 00:27:16;;;;;;;3.53;3.20;;;;;;;;;;5031822;28;20055;-57
2022/08/08 00:29:47;;;;;;;3.90;3.17;;;;;;;;;;5032700;28;20021;-58
2022/08/08 00:32:19;;;;;;;3.70;3.40;;;;;;;;;;5031285;28;20151;-58
2022/08/08 00:35:22;;;;;;;4.18;3.33;;;;;;;;;;5031729;28;20029;-57
2022/08/08 00:38:19;;;;;;;4.75;3.30;;;;;;;;;;5031661;28;20048;-58
2022/08/08 00:41:02;;;;;;;4.22;3.30;;;;;;;;;;5031704;28;20101;-58
2022/08/08 00:43:44;;;;;;;3.90;3.40;;;;;;;;;;5032272;28;20033;-57
2022/08/08 00:46:27;;;;;;;4.28;3.25;;;;;;;;;;5030463;28;20380;-57
2022/08/08 00:49:03;;;;;;;6.50;3.25;;;;;;;;;;5030273;28;20032;-58
2022/08/08 00:51:32;;;;;;;4.10;3.70;;;;;;;;;;5029252;28;20036;-57
2022/08/08 00:54:15;;;;;;;5.20;3.33;;;;;;;;;;5032271;28;20040;-58
2022/08/08 00:57:00;;;;;;;6.35;3.42;;;;;;;;;;5030684;28;20021;-57
2022/08/08 00:59:56;;;;;;;4.97;3.85;;;;;;;;;;5033374;28;20029;-57
2022/08/08 01:02:41;;;;;;;4.10;3.60;;;;;;;;;;5027672;28;20479;-57
2022/08/08 01:05:06;;;;;;;4.25;3.78;;;;;;;;;;5032118;28;20468;-58
2022/08/08 01:07:53;;;;;;;3.97;3.67;;;;;;;;;;5029667;28;20033;-57
2022/08/08 01:10:55;;;;;;;4.50;3.80;;;;;;;;;;5031675;28;20634;-58
2022/08/08 01:13:51;;;;;;;5.65;4.30;;;;;;;;;;5031120;28;20049;-57
2022/08/08 01:16:44;;;;;;;5.00;3.80;;;;;;;;;;5030466;28;20025;-57
2022/08/08 01:19:40;;;;;;;4.88;3.90;;;;;;;;;;5030820;28;20120;-57
2022/08/08 01:22:46;;;;;;;6.65;4.03;;;;;;;;;;5026642;28;20104;-58
2022/08/08 01:25:59;;;;;;;4.57;3.63;;;;;;;;;;5031554;28;20104;-58
2022/08/08 01:28:36;;;;;;;4.00;3.60;;;;;;;;;;5027016;28;20033;-57
2022/08/08 01:31:29;;;;;;;4.47;3.42;;;;;;;;;;5030781;28;20515;-57
2022/08/08 01:34:19;;;;;;;5.05;3.50;;;;;;;;;;5025684;28;20032;-58
2022/08/08 01:36:56;;;;;;;5.75;3.75;;;;;;;;;;5030525;28;20534;-58
2022/08/08 01:39:28;;;;;;;3.83;3.50;;;;;;;;;;5029479;28;20057;-58
2022/08/08 01:41:59;;;;;;;6.35;4.13;;;;;;;;;;5029173;28;20030;-57
2022/08/08 01:45:02;;;;;;;4.53;3.88;;;;;;;;;;5029638;28;20100;-58
2022/08/08 01:47:46;;;;;;;4.28;3.63;;;;;;;;;;5028250;28;20057;-57
2022/08/08 01:50:33;;;;;;;4.35;3.80;;;;;;;;;;5029710;28;20099;-57
2022/08/08 01:53:22;;;;;;;4.90;3.55;;;;;;;;;;5026486;28;20025;-58
2022/08/08 01:56:14;;;;;;;4.18;3.72;;;;;;;;;;5031233;28;20025;-57
2022/08/08 01:59:20;;;;;;;5.40;3.53;;;;;;;;;;5026854;28;20069;-57
2022/08/08 02:01:49;;;;;;;5.40;3.92;;;;;;;;;;5008347;28;20076;-58
2022/08/08 02:04:14;;;;;;;5.38;3.85;;;;;;;;;;5030085;28;20159;-58
2022/08/08 02:06:48;;;;;;;4.25;3.85;;;;;;;;;;5030407;28;20126;-57
2022/08/08 02:09:43;;;;;;;5.10;3.70;;;;;;;;;;5028393;28;20030;-57
2022/08/08 02:12:24;;;;;;;4.88;3.58;;;;;;;;;;5027833;28;20636;-58
2022/08/08 02:15:23;;;;;;;4.22;3.78;;;;;;;;;;5030316;28;20035;-58
2022/08/08 02:18:02;;;;;;;4.70;3.97;;;;;;;;;;5029291;28;20049;-58
2022/08/08 02:23:49;;;;;;;5.18;3.92;;;;;;;;;;5023966;28;20523;-58
2022/08/08 02:26:25;;;;;;;5.55;4.07;;;;;;;;;;5030014;28;20025;-57
2022/08/08 02:29:09;;;;;;;6.25;4.38;;;;;;;;;;5023399;28;20076;-58
2022/08/08 02:31:42;;;;;;;5.13;4.15;;;;;;;;;;5029363;28;20028;-57
2022/08/08 02:34:07;;;;;;;4.85;4.03;;;;;;;;;;5028769;28;20030;-58
2022/08/08 02:36:38;;;;;;;7.88;5.43;;;;;;;;;;5028359;28;20037;-58
2022/08/08 02:39:22;;;;;;;6.30;4.88;;;;;;;;;;5028622;28;20044;-57
2022/08/08 02:41:56;;;;;;;8.95;4.63;;;;;;;;;;5023463;28;20056;-57
2022/08/08 02:44:43;;;;;;;4.88;4.38;;;;;;;;;;5028326;28;20067;-58
2022/08/08 02:47:18;;;;;;;5.05;4.50;;;;;;;;;;5028228;28;20029;-58
2022/08/08 02:50:01;;;;;;;7.40;4.45;;;;;;;;;;5029289;28;20446;-58
2022/08/08 02:53:04;;;;;;;7.13;4.75;;;;;;;;;;5028439;28;20061;-57
2022/08/08 02:55:30;;;;;;;6.00;4.70;;;;;;;;;;5029460;28;20120;-58
2022/08/08 02:58:25;;;;;;;10.25;5.35;;;;;;;;;;5027578;28;20136;-57
2022/08/08 03:01:15;;;;;;;6.88;4.75;;;;;;;;;;5028239;28;20108;-58
2022/08/08 03:04:05;;;;;;;6.40;4.95;;;;;;;;;;5026869;28;20025;-58
2022/08/08 03:06:39;;;;;;;7.78;4.85;;;;;;;;;;5028787;28;20025;-57
2022/08/08 03:09:49;;;;;;;6.53;4.63;;;;;;;;;;5029535;28;20061;-58
2022/08/08 03:12:14;;;;;;;;;;;;;;;;;;5024909;28;20491;-57
2022/08/08 03:14:55;;;;;;;5.57;4.82;;;;;;;;;;5029245;28;19927;-57
2022/08/08 03:17:44;;;;;;;10.52;4.82;;;;;;;;;;5028517;28;20022;-58
2022/08/08 03:20:12;;;;;;;7.13;4.70;;;;;;;;;;5026067;28;20144;-57
2022/08/08 03:22:44;;;;;;;7.75;5.15;;;;;;;;;;5028947;28;20029;-57
2022/08/08 03:25:10;;;;;;;14.05;5.80;;;;;;;;;;5029235;28;20056;-57
2022/08/08 03:27:44;;;;;;;6.22;4.70;;;;;;;;;;5027942;28;20491;-58
2022/08/08 03:30:12;;;;;;;6.35;4.93;;;;;;;;;;5029105;28;20087;-58
2022/08/08 03:35:25;;;;;;;7.65;5.40;;;;;;;;;;5028554;28;20048;-57
2022/08/08 03:37:51;;;;;;;7.60;5.20;;;;;;;;;;5028325;28;20060;-58
2022/08/08 03:40:19;;;;;;;6.47;5.18;;;;;;;;;;5028366;28;20025;-57
2022/08/08 03:42:45;;;;;;;6.97;5.25;;;;;;;;;;5028367;28;20017;-58
2022/08/08 03:45:19;;;;;;;8.48;5.60;;;;;;;;;;5027469;28;20040;-58
2022/08/08 03:48:17;;;;;;;8.00;5.38;;;;;;;;;;5027659;28;20025;-58
2022/08/08 03:50:47;;;;;;;8.50;6.03;;;;;;;;;;5011833;28;20044;-57
2022/08/08 03:53:16;;;;;;;7.15;5.45;;;;;;;;;;5028362;28;20511;-58
2022/08/08 03:55:44;;;;;;;7.60;5.20;;;;;;;;;;5028969;28;20100;-57
2022/08/08 03:58:17;;;;;;;7.80;5.55;;;;;;;;;;5028030;28;20064;-57
2022/08/08 04:00:51;;;;;;;7.35;5.63;;;;;;;;;;5027457;28;20030;-56
2022/08/08 04:03:17;;;;;;;7.57;5.65;;;;;;;;;;5026313;28;20394;-58
2022/08/08 04:05:42;;;;;;;6.13;5.05;;;;;;;;;;5028684;28;20028;-58
2022/08/08 04:08:16;;;;;;;7.47;5.32;;;;;;;;;;5028402;28;20472;-57
2022/08/08 04:10:46;;;;;;;10.13;5.70;;;;;;;;;;5026929;28;20025;-57
2022/08/08 04:13:11;;;;;;;7.55;6.03;;;;;;;;;;5028370;28;20079;-58
2022/08/08 04:15:36;;;;;;;8.30;5.88;;;;;;;;;;5028835;28;20033;-58
2022/08/08 04:18:02;;;;;;;7.32;5.88;;;;;;;;;;5028108;28;20024;-57
2022/08/08 04:20:28;;;;;;;8.88;6.38;;;;;;;;;;5028216;28;20029;-58
2022/08/08 04:22:54;;;;;;;9.52;6.40;;;;;;;;;;5022167;28;20025;-58
2022/08/08 04:25:20;;;;;;;12.52;6.20;;;;;;;;;;5028789;28;20045;-58
2022/08/08 04:27:45;;;;;;;8.38;6.10;;;;;;;;;;5027922;28;20034;-58
2022/08/08 04:30:11;;;;;;;10.07;6.80;;;;;;;;;;5028977;28;20029;-57
2022/08/08 04:32:37;;;;;;;9.13;5.78;;;;;;;;;;5027134;28;20025;-58
2022/08/08 04:35:03;;;;;;;9.35;6.10;;;;;;;;;;5026717;28;20364;-58
2022/08/08 04:37:29;;;;;;;7.30;6.07;;;;;;;;;;5029036;28;20124;-56
2022/08/08 04:39:55;;;;;;;9.52;6.03;;;;;;;;;;5027016;28;20550;-57
2022/08/08 04:42:21;;;;;;;9.73;6.75;;;;;;;;;;5028324;28;20021;-57
2022/08/08 04:44:47;;;;;;;9.65;6.63;;;;;;;;;;5029110;28;20381;-57
2022/08/08 04:47:12;;;;;;;8.95;6.57;;;;;;;;;;5027324;28;20056;-57
2022/08/08 04:49:38;;;;;;;9.85;6.88;;;;;;;;;;5032866;28;20028;-58
2022/08/08 04:52:03;;;;;;;8.95;6.55;;;;;;;;;;5028627;28;20033;-58
2022/08/08 04:54:29;;;;;;;11.35;6.65;;;;;;;;;;5030912;28;20048;-57
2022/08/08 04:56:54;;;;;;;12.60;7.72;;;;;;;;;;5027992;28;20029;-57
2022/08/08 04:59:20;;;;;;;12.32;7.93;;;;;;;;;;5031879;28;20518;-58
2022/08/08 05:01:45;;;;;;;11.75;7.55;;;;;;;;;;5030045;28;20036;-57
2022/08/08 05:04:11;;;;;;;9.07;6.90;;;;;;;;;;5031688;28;20029;-61
2022/08/08 05:06:36;;;;;;;10.38;6.85;;;;;;;;;;5031700;28;20515;-61
2022/08/08 05:09:03;;;;;;;10.05;7.03;;;;;;;;;;5031432;28;20025;-60
2022/08/08 05:11:28;;;;;;;10.95;7.05;;;;;;;;;;5030735;28;20090;-61
2022/08/08 05:13:54;;;;;;;10.15;7.32;;;;;;;;;;5031720;28;20111;-61
2022/08/08 05:16:19;;;;;;;11.98;7.93;;;;;;;;;;5031678;28;20036;-59
2022/08/08 05:18:45;;;;;;;12.93;7.68;;;;;;;;;;5030997;28;20049;-64
2022/08/08 05:21:11;;;;;;;10.88;7.35;;;;;;;;;;5030739;28;20041;-61
2022/08/08 05:23:36;;;;;;;10.07;6.72;;;;;;;;;;5031234;28;20022;-60
2022/08/08 05:26:02;;;;;;;9.27;6.70;;;;;;;;;;5031346;28;20434;-57
2022/08/08 05:28:27;;;;;;;10.93;6.85;;;;;;;;;;5030810;28;20109;-59
2022/08/08 05:30:53;;;;;;;10.15;7.25;;;;;;;;;;5030850;28;20490;-61
2022/08/08 05:33:19;;;;;;;10.82;7.45;;;;;;;;;;5028566;28;20022;-60
2022/08/08 05:35:45;;;;;;;9.07;6.30;;;;;;;;;;5030083;28;20021;-61
2022/08/08 05:38:16;;;;;;;15.25;6.80;;;;;;;;;;5027115;28;20032;-56
2022/08/08 05:40:47;;;;;;;10.02;6.78;;;;;;;;;;5028378;28;20366;-57
2022/08/08 05:43:26;;;;;;;8.65;6.72;;;;;;;;;;5028274;28;20030;-57
2022/08/08 05:45:56;;;;;;;12.35;7.78;;;;;;;;;;5029245;28;20076;-58
2022/08/08 05:48:22;;;;;;;11.05;7.55;;;;;;;;;;5030225;28;20064;-57
2022/08/08 05:50:49;;;;;;;11.27;7.28;;;;;;;;;;5027339;28;20518;-60
2022/08/08 05:53:15;;;;;;;9.48;6.18;;;;;;;;;;5028643;28;20380;-60
2022/08/08 05:55:42;;;;;;;11.32;6.57;;;;;;;;;;5028448;28;20028;-58
2022/08/08 05:58:11;;;;;;;8.63;6.47;;;;;;;;;;5025933;28;20025;-60
2022/08/08 06:00:37;;;;;;;9.52;6.53;;;;;;;;;;5025658;28;20032;-60
2022/08/08 06:03:11;;;;;;;8.32;6.40;;;;;;;;;;5026156;28;20022;-60
2022/08/08 06:06:08;;;;;;;9.13;5.95;;;;;;;;;;5021176;28;20032;-61
2022/08/08 06:08:51;;;;;;;7.13;5.55;;;;;;;;;;5021101;28;20120;-61
2022/08/08 06:11:18;;;;;;;8.57;5.65;;;;;;;;;;5025891;28;20029;-60
2022/08/08 06:13:46;;;;;;;7.85;5.82;;;;;;;;;;5028258;28;20057;-61
2022/08/08 06:16:12;;;;;;;8.60;5.60;;;;;;;;;;5027048;28;20490;-62
2022/08/08 06:18:39;;;;;;;7.85;5.80;;;;;;;;;;5027273;28;20033;-61
2022/08/08 06:21:06;;;;;;;7.68;5.80;;;;;;;;;;5029061;28;20025;-61
2022/08/08 06:23:32;;;;;;;9.63;5.90;;;;;;;;;;5028021;28;20402;-60
2022/08/08 06:26:05;;;;;;;7.28;5.93;;;;;;;;;;5028017;28;20037;-61
2022/08/08 06:28:33;;;;;;;7.90;5.45;;;;;;;;;;5026247;28;20530;-60
2022/08/08 06:31:02;;;;;;;9.88;6.05;;;;;;;;;;5028024;28;20026;-61
2022/08/08 06:33:50;;;;;;;8.63;5.25;;;;;;;;;;5027053;28;20133;-61
2022/08/08 06:36:36;;;;;;;7.05;5.28;;;;;;;;;;5026247;28;20029;-60
2022/08/08 06:39:04;;;;;;;8.27;5.78;;;;;;;;;;5027122;28;20017;-61
2022/08/08 06:41:33;;;;;;;6.38;5.40;;;;;;;;;;5025217;28;20048;-58
2022/08/08 06:44:02;;;;;;;8.93;5.78;;;;;;;;;;5022031;28;20041;-60
2022/08/08 06:46:28;;;;;;;8.70;5.38;;;;;;;;;;5027473;28;20038;-61
2022/08/08 06:48:55;;;;;;;8.05;6.05;;;;;;;;;;5028298;28;20025;-61
2022/08/08 06:51:21;;;;;;;8.68;5.95;;;;;;;;;;5026889;28;20357;-61
2022/08/08 06:53:47;;;;;;;9.00;5.93;;;;;;;;;;5026409;28;20021;-60
2022/08/08 06:56:13;;;;;;;10.52;5.93;;;;;;;;;;5027964;28;20483;-59
2022/08/08 06:58:38;;;;;;;5.97;5.20;;;;;;;;;;5027611;28;20419;-60
2022/08/08 07:01:05;;;;;;;10.13;6.82;;;;;;;;;;5026574;28;20124;-61
2022/08/08 07:03:34;;;;;;;11.73;6.65;;;;;;;;;;5025556;28;20038;-60
2022/08/08 07:06:02;;;;;;;9.55;6.45;;;;;;;;;;5026941;28;20120;-60
2022/08/08 07:08:33;;;;;;;10.20;6.50;;;;;;;;;;5027080;28;20033;-60
2022/08/08 07:11:02;;;;;;;9.02;5.95;;;;;;;;;;5029819;28;20762;-57
2022/08/08 07:13:37;;;;;;;9.18;6.22;;;;;;;;;;5027304;28;20049;-59
2022/08/08 07:16:11;;;;;;;7.85;5.65;;;;;;;;;;5027267;28;20026;-61
2022/08/08 07:18:57;;;;;;;6.68;5.80;;;;;;;;;;5026029;28;20032;-59
2022/08/08 07:21:28;;;;;;;8.45;5.93;;;;;;;;;;5025948;28;20032;-59
2022/08/08 07:24:11;;;;;;;8.23;6.07;;;;;;;;;;5024034;28;20040;-60
2022/08/08 07:26:39;;;;;;;8.48;6.40;;;;;;;;;;5026557;28;20033;-59
2022/08/08 07:29:05;;;;;;;6.80;5.85;;;;;;;;;;5026160;28;20040;-60
2022/08/08 07:31:30;;;;;;;8.95;5.88;;;;;;;;;;5025529;28;20030;-60
2022/08/08 07:33:56;;;;;;;9.30;5.82;;;;;;;;;;5026791;28;20036;-60
2022/08/08 07:36:23;;;;;;;8.18;5.32;;;;;;;;;;5026688;28;20037;-59
2022/08/08 07:38:50;;;;;;;9.20;6.32;;;;;;;;;;5023764;28;20066;-59
2022/08/08 07:41:18;;;;;;;8.65;6.30;;;;;;;;;;5024814;28;20048;-60
2022/08/08 07:43:43;;;;;;;8.95;5.97;;;;;;;;;;5026065;28;20510;-60
2022/08/08 07:46:09;;;;;;;10.52;6.53;;;;;;;;;;5026353;28;20064;-60
2022/08/08 07:48:34;;;;;;;6.57;5.75;;;;;;;;;;5021504;28;20502;-60
2022/08/08 07:51:01;;;;;;;9.52;5.68;;;;;;;;;;5020041;28;20030;-59
2022/08/08 07:53:40;;;;;;;7.57;6.20;;;;;;;;;;5027619;28;20025;-59
2022/08/08 07:56:08;;;;;;;;;;;;;;;;;;5028071;28;20021;-60
2022/08/08 07:58:38;;;;;;;9.02;6.20;;;;;;;;;;5025967;28;19916;-60
2022/08/08 08:01:14;;;;;;;9.65;5.50;;;;;;;;;;5026093;28;20021;-59
2022/08/08 08:04:02;;;;;;;5.70;4.97;;;;;;;;;;5025439;28;20128;-61
2022/08/08 08:06:32;;;;;;;14.98;9.57;;;;;;;;;;5026227;28;20032;-60
2022/08/08 08:09:20;;;;;;;8.02;6.43;;;;;;;;;;5023470;28;20155;-60
2022/08/08 08:11:49;;;;;;;7.60;5.75;;;;;;;;;;5026553;28;20013;-59
2022/08/08 08:14:40;;;;;;;7.68;5.35;;;;;;;;;;5026300;28;20446;-59
2022/08/08 08:17:08;;;;;;;11.65;6.22;;;;;;;;;;5018835;28;20056;-60
2022/08/08 08:19:35;;;;;;;7.05;5.50;;;;;;;;;;5027586;28;20043;-60
2022/08/08 08:22:01;;;;;;;6.82;4.82;;;;;;;;;;5026943;28;20075;-58
2022/08/08 08:24:27;;;;;;;7.25;5.55;;;;;;;;;;5026355;28;20025;-58
2022/08/08 08:26:52;;;;;;;6.22;5.35;;;;;;;;;;5027085;28;20017;-59
2022/08/08 08:29:18;;;;;;;7.70;5.20;;;;;;;;;;5026619;28;20029;-59
2022/08/08 08:31:43;;;;;;;6.80;5.20;;;;;;;;;;5025040;28;20030;-59
2022/08/08 08:34:09;;;;;;;6.28;5.38;;;;;;;;;;5029162;28;20080;-61
2022/08/08 08:36:34;;;;;;;5.85;4.85;;;;;;;;;;5030664;28;20421;-61
2022/08/08 08:39:00;;;;;;;7.68;4.90;;;;;;;;;;5030424;28;20029;-64
2022/08/08 08:41:28;;;;;;;6.43;5.60;;;;;;;;;;5021843;28;20022;-59
2022/08/08 08:43:54;;;;;;;7.90;5.63;;;;;;;;;;5029578;28;20591;-60
2022/08/08 08:46:19;;;;;;;5.82;5.10;;;;;;;;;;5030972;28;20029;-60
2022/08/08 08:48:45;;;;;;;8.30;5.13;;;;;;;;;;5030289;28;20083;-60
2022/08/08 08:51:14;;;;;;;6.53;5.00;;;;;;;;;;5029902;28;20029;-60
2022/08/08 08:54:06;;;;;;;6.65;5.05;;;;;;;;;;5027443;28;20033;-61
2022/08/08 08:56:35;;;;;;;5.35;4.57;;;;;;;;;;5028851;28;20036;-61
2022/08/08 08:59:01;;;;;;;8.13;4.80;;;;;;;;;;5030333;28;20028;-60
2022/08/08 09:01:36;;;;;;;7.00;4.68;;;;;;;;;;5027867;28;20052;-60
2022/08/08 09:04:13;;;;;;;7.60;5.00;;;;;;;;;;5029641;28;20021;-60
2022/08/08 09:06:40;;;;;;;5.60;4.90;;;;;;;;;;5030094;28;20025;-60
2022/08/08 09:09:12;;;;;;;6.13;4.68;;;;;;;;;;5030103;28;20051;-61
2022/08/08 09:11:40;;;;;;;6.22;4.85;;;;;;;;;;5028028;28;20028;-60
2022/08/08 09:14:08;;;;;;;4.68;4.20;;;;;;;;;;5030320;28;20048;-62
2022/08/08 09:16:34;;;;;;;5.03;4.53;;;;;;;;;;5030201;28;20031;-59
2022/08/08 09:18:59;;;;;;;5.32;4.20;;;;;;;;;;5030651;28;20390;-59
2022/08/08 09:21:26;;;;;;;4.88;4.38;;;;;;;;;;5028260;28;20044;-60
2022/08/08 09:23:53;;;;;;;5.60;4.25;;;;;;;;;;5026801;28;20471;-59
2022/08/08 09:26:44;;;;;;;10.82;5.07;;;;;;;;;;5029769;28;20040;-60
2022/08/08 09:29:19;;;;;;;6.68;4.57;;;;;;;;;;5025325;28;20099;-59
2022/08/08 09:32:03;;;;;;;5.00;4.30;;;;;;;;;;5022008;28;20060;-60
2022/08/08 09:34:34;;;;;;;6.25;3.72;;;;;;;;;;5029302;28;20557;-61
2022/08/08 09:37:07;;;;;;;7.70;4.32;;;;;;;;;;5027810;28;20065;-60
2022/08/08 09:39:45;;;;;;;5.63;3.88;;;;;;;;;;5029301;28;20029;-61
2022/08/08 09:42:14;;;;;;;5.63;4.10;;;;;;;;;;5028289;28;20052;-60
2022/08/08 09:44:48;;;;;;;7.32;4.05;;;;;;;;;;5027432;28;20286;-61
2022/08/08 09:47:14;;;;;;;4.32;3.90;;;;;;;;;;5025997;28;20071;-60
2022/08/08 09:49:40;;;;;;;6.53;3.67;;;;;;;;;;5023372;28;20475;-61
2022/08/08 09:52:06;;;;;;;4.53;4.10;;;;;;;;;;5028746;28;20033;-63
2022/08/08 09:54:39;;;;;;;4.78;3.20;;;;;;;;;;5028569;28;20060;-60
2022/08/08 09:57:09;;;;;;;4.20;3.10;;;;;;;;;;5027980;28;20037;-60
2022/08/08 09:59:38;;;;;;;3.17;2.95;;;;;;;;;;5028084;28;20037;-60
2022/08/08 10:02:05;;;;;;;3.80;3.00;;;;;;;;;;5032208;28;20464;-61
2022/08/08 10:04:33;;;;;;;4.60;3.15;;;;;;;;;;5026646;28;20034;-60
2022/08/08 10:07:01;;;;;;;7.35;3.70;;;;;;;;;;5026995;28;20419;-61
2022/08/08 10:09:32;;;;;;;6.50;3.60;;;;;;;;;;5027462;28;20441;-60
2022/08/08 10:12:00;;;;;;;3.05;2.78;;;;;;;;;;5024354;28;20369;-56
2022/08/08 10:14:33;;;;;;;5.18;3.00;;;;;;;;;;5028369;28;20470;-56
2022/08/08 10:17:02;;;;;;;3.28;2.97;;;;;;;;;;5027080;28;20032;-55
2022/08/08 10:19:40;;;;;;;3.53;2.80;;;;;;;;;;5027747;28;20087;-55
2022/08/08 10:22:08;;;;;;;4.63;3.25;;;;;;;;;;5026152;28;20037;-56
2022/08/08 10:24:35;;;;;;;3.20;2.78;;;;;;;;;;5027224;28;20398;-56
2022/08/08 10:27:02;;;;;;;4.10;2.95;;;;;;;;;;5027512;28;20087;-57
2022/08/08 10:29:37;;;;;;;3.08;2.80;;;;;;;;;;5026603;28;20034;-56
2022/08/08 10:35:00;;;;;;;3.17;2.90;;;;;;;;;;5025019;28;20047;-56
2022/08/08 10:37:28;;;;;;;3.80;2.60;;;;;;;;;;5024589;28;20036;-55
2022/08/08 10:39:55;;;;;;;3.93;3.03;;;;;;;;;;5027556;28;20029;-59
2022/08/08 10:42:23;;;;;;;3.58;2.75;;;;;;;;;;5025430;28;20037;-59
2022/08/08 10:44:57;;;;;;;5.28;2.85;;;;;;;;;;5028561;28;20096;-59
2022/08/08 10:47:23;;;;;;;2.75;2.55;;;;;;;;;;5027643;28;20400;-59
2022/08/08 10:49:53;;;;;;;2.67;2.47;;;;;;;;;;5026669;28;20116;-60
2022/08/08 10:52:26;;;;;;;3.90;2.50;;;;;;;;;;5026808;28;20057;-61
2022/08/08 10:54:57;;;;;;;3.08;2.75;;;;;;;;;;5028249;28;20032;-60
2022/08/08 10:57:23;;;;;;;7.00;2.42;;;;;;;;;;5027621;28;20032;-60
2022/08/08 10:59:57;;;;;;;4.18;2.58;;;;;;;;;;5024538;28;20467;-60
2022/08/08 11:02:32;;;;;;;5.85;2.85;;;;;;;;;;5023830;28;20023;-59
2022/08/08 11:05:08;;;;;;;3.92;2.50;;;;;;;;;;5021545;28;20030;-60
2022/08/08 11:07:40;;;;;;;3.47;3.13;;;;;;;;;;5025380;28;20029;-59
2022/08/08 11:10:11;;;;;;;5.90;2.92;;;;;;;;;;5024053;28;20029;-61
2022/08/08 11:12:46;;;;;;;4.57;2.80;;;;;;;;;;5019556;28;20419;-61
2022/08/08 11:15:16;;;;;;;2.97;2.70;;;;;;;;;;5026449;28;20021;-61
2022/08/08 11:17:43;;;;;;;2.80;2.50;;;;;;;;;;5026159;28;20017;-61
2022/08/08 11:20:11;;;;;;;4.40;2.50;;;;;;;;;;5028707;28;20132;-61
2022/08/08 11:22:37;;;;;;;4.18;2.95;;;;;;;;;;5020795;28;20029;-60
2022/08/08 11:25:05;;;;;;;2.78;2.47;;;;;;;;;;5026388;28;20103;-60
2022/08/08 11:27:34;;;;;;;2.97;2.70;;;;;;;;;;5025895;28;20033;-60
2022/08/08 11:30:02;;;;;;;4.10;2.72;;;;;;;;;;5025636;28;20455;-60
2022/08/08 11:32:31;;;;;;;3.30;2.90;;;;;;;;;;5025692;28;20036;-60
2022/08/08 11:35:17;;;;;;;4.72;3.08;;;;;;;;;;5025517;28;20503;-61
2022/08/08 11:37:43;;;;;;;3.88;2.50;;;;;;;;;;5020130;28;20077;-60
2022/08/08 11:40:11;;;;;;;5.40;2.92;;;;;;;;;;5028890;28;20522;-59
2022/08/08 11:42:38;;;;;;;3.22;2.92;;;;;;;;;;5025855;28;20112;-61
2022/08/08 11:45:07;;;;;;;4.30;2.80;;;;;;;;;;5025619;28;20037;-62
2022/08/08 11:47:35;;;;;;;2.85;2.63;;;;;;;;;;5025667;28;20029;-60
2022/08/08 11:50:08;;;;;;;3.97;2.55;;;;;;;;;;5027604;28;20446;-61
2022/08/08 11:52:35;;;;;;;3.22;2.63;;;;;;;;;;5021491;28;20483;-60
2022/08/08 11:55:12;;;;;;;2.60;2.40;;;;;;;;;;5026934;28;20132;-60
2022/08/08 11:57:38;;;;;;;2.70;2.50;;;;;;;;;;5025393;28;20057;-61
2022/08/08 12:00:08;;;;;;;3.70;2.70;;;;;;;;;;5027473;28;20053;-63
2022/08/08 12:02:54;;;;;;;5.15;2.78;;;;;;;;;;5024186;28;20028;-60
2022/08/08 12:05:37;;;;;;;3.88;2.88;;;;;;;;;;5025713;28;20021;-59
2022/08/08 12:08:03;;;;;;;5.53;2.70;;;;;;;;;;5030161;28;20037;-59
2022/08/08 12:10:29;;;;;;;2.95;2.65;;;;;;;;;;5029643;28;20083;-61
2022/08/08 12:13:05;;;;;;;5.95;2.85;;;;;;;;;;5028465;28;20494;-60
2022/08/08 12:15:34;;;;;;;2.63;2.42;;;;;;;;;;5029107;28;20033;-61
2022/08/08 12:18:00;;;;;;;5.35;2.63;;;;;;;;;;5028961;28;20079;-59
2022/08/08 12:20:36;;;;;;;4.05;2.80;;;;;;;;;;5027353;28;20025;-60
2022/08/08 12:23:01;;;;;;;4.03;2.40;;;;;;;;;;5029922;28;20549;-62
2022/08/08 12:25:27;;;;;;;4.65;2.35;;;;;;;;;;5029147;28;20029;-62
2022/08/08 12:28:08;;;;;;;3.13;2.45;;;;;;;;;;5026986;28;20026;-61
2022/08/08 12:30:34;;;;;;;4.50;2.53;;;;;;;;;;5028361;28;20380;-60
2022/08/08 12:33:00;;;;;;;2.80;2.20;;;;;;;;;;5028009;28;20112;-62
2022/08/08 12:35:32;;;;;;;3.55;2.45;;;;;;;;;;5028330;28;20158;-61
2022/08/08 12:38:16;;;;;;;3.17;2.30;;;;;;;;;;5025963;28;20030;-60
2022/08/08 12:40:49;;;;;;;3.03;2.63;;;;;;;;;;5027775;28;20064;-61
2022/08/08 12:43:15;;;;;;;2.60;2.40;;;;;;;;;;5029709;28;20036;-61
2022/08/08 12:45:42;;;;;;;5.03;2.28;;;;;;;;;;5029953;28;20108;-61
2022/08/08 12:48:19;;;;;;;3.92;2.70;;;;;;;;;;5028068;28;20068;-62
2022/08/08 12:50:48;;;;;;;3.58;2.13;;;;;;;;;;5027619;28;20565;-62
2022/08/08 12:53:19;;;;;;;;;;;;;;;;;;5030805;28;20060;-61
2022/08/08 12:55:58;;;;;;;3.45;2.47;;;;;;;;;;5028368;28;20394;-60
2022/08/08 12:58:26;;;;;;;5.55;2.50;;;;;;;;;;5029003;28;20057;-62
2022/08/08 13:00:52;;;;;;;2.60;2.40;;;;;;;;;;5029409;28;20029;-64
2022/08/08 13:03:32;;;;;;;3.25;2.30;;;;;;;;;;5027849;28;20030;-61
2022/08/08 13:06:09;;;;;;;3.67;2.50;;;;;;;;;;5028347;28;20052;-60
2022/08/08 13:08:40;;;;;;;3.03;2.35;;;;;;;;;;5025226;28;20423;-59
2022/08/08 13:11:16;;;;;;;4.18;2.40;;;;;;;;;;5027481;28;20026;-62
2022/08/08 13:13:42;;;;;;;3.08;2.10;;;;;;;;;;5027435;28;20404;-62
2022/08/08 13:16:21;;;;;;;2.55;2.20;;;;;;;;;;5029822;28;20025;-61
2022/08/08 13:18:48;;;;;;;3.67;2.13;;;;;;;;;;5027769;28;20026;-62
2022/08/08 13:21:15;;;;;;;3.83;2.28;;;;;;;;;;5027229;28;20021;-62
2022/08/08 13:23:41;;;;;;;5.95;2.40;;;;;;;;;;5028366;28;20033;-59
2022/08/08 13:26:07;;;;;;;2.97;2.20;;;;;;;;;;5028654;28;20025;-60
2022/08/08 13:28:33;;;;;;;4.90;2.28;;;;;;;;;;5028080;28;20479;-62
2022/08/08 13:31:00;;;;;;;9.05;2.25;;;;;;;;;;5028015;28;20029;-59
2022/08/08 13:33:25;;;;;;;2.63;2.35;;;;;;;;;;5029837;28;20044;-60
2022/08/08 13:35:54;;;;;;;2.53;2.33;;;;;;;;;;5028605;28;20029;-57
2022/08/08 13:38:22;;;;;;;2.15;2.05;;;;;;;;;;5028459;28;20026;-56
2022/08/08 13:40:48;;;;;;;2.17;1.85;;;;;;;;;;5026740;28;20037;-55
2022/08/08 13:43:14;;;;;;;4.38;2.10;;;;;;;;;;5023473;28;20081;-56
2022/08/08 13:45:39;;;;;;;4.10;2.00;;;;;;;;;;5030045;28;20467;-56
2022/08/08 13:48:12;;;;;;;2.00;1.90;;;;;;;;;;5028650;28;20032;-61
2022/08/08 13:50:44;;;;;;;2.60;2.40;;;;;;;;;;5028651;28;20096;-61
2022/08/08 13:53:10;;;;;;;3.80;2.10;;;;;;;;;;5029355;28;20032;-61
2022/08/08 13:55:36;;;;;;;6.25;2.25;;;;;;;;;;5028629;28;20022;-61
2022/08/08 13:58:02;;;;;;;4.80;2.10;;;;;;;;;;5026355;28;20017;-61
2022/08/08 14:00:28;;;;;;;4.78;2.33;;;;;;;;;;5028062;28;20495;-61
2022/08/08 14:02:58;;;;;;;3.53;1.90;;;;;;;;;;5028178;28;20034;-62
2022/08/08 14:05:28;;;;;;;4.18;2.00;;;;;;;;;;5029529;28;20049;-61
2022/08/08 14:07:54;;;;;;;3.25;1.83;;;;;;;;;;5028889;28;20075;-60
2022/08/08 14:10:21;;;;;;;3.03;1.85;;;;;;;;;;5028260;28;20130;-61
2022/08/08 14:12:47;;;;;;;2.35;1.95;;;;;;;;;;5028714;28;20029;-61
2022/08/08 14:15:26;;;;;;;2.15;1.80;;;;;;;;;;5027735;28;20426;-61
2022/08/08 14:18:03;;;;;;;5.03;1.98;;;;;;;;;;5027557;28;20033;-61
2022/08/08 14:20:37;;;;;;;3.28;2.10;;;;;;;;;;5027558;28;20483;-60
2022/08/08 14:23:09;;;;;;;4.30;2.20;;;;;;;;;;5025537;28;20026;-60
2022/08/08 14:25:53;;;;;;;2.20;2.00;;;;;;;;;;5028558;28;20045;-60
2022/08/08 14:28:21;;;;;;;2.28;1.98;;;;;;;;;;5026950;28;20391;-60
2022/08/08 14:30:47;;;;;;;2.53;2.00;;;;;;;;;;5026752;28;20108;-61
2022/08/08 14:33:25;;;;;;;3.40;2.17;;;;;;;;;;5027151;28;20056;-61
2022/08/08 14:36:05;;;;;;;3.95;2.10;;;;;;;;;;5026875;28;20421;-62
2022/08/08 14:38:32;;;;;;;2.20;1.80;;;;;;;;;;5024579;28;20029;-62
2022/08/08 14:41:08;;;;;;;6.30;2.20;;;;;;;;;;5027261;28;20036;-60
2022/08/08 14:43:46;;;;;;;4.95;1.92;;;;;;;;;;5026388;28;20021;-60
2022/08/08 14:46:16;;;;;;;3.58;1.90;;;;;;;;;;5025987;28;20053;-60
2022/08/08 14:48:47;;;;;;;2.30;2.10;;;;;;;;;;5026592;28;20078;-61
2022/08/08 14:51:13;;;;;;;2.22;2.10;;;;;;;;;;5026196;28;20029;-61
2022/08/08 14:53:39;;;;;;;2.10;1.90;;;;;;;;;;5027182;28;20304;-61
2022/08/08 14:56:06;;;;;;;4.07;2.15;;;;;;;;;;5027789;28;20107;-62
2022/08/08 14:58:32;;;;;;;2.72;1.95;;;;;;;;;;5027440;28;20100;-61
2022/08/08 15:00:57;;;;;;;3.55;1.98;;;;;;;;;;5026316;28;20104;-61
2022/08/08 15:03:23;;;;;;;2.10;1.65;;;;;;;;;;5025825;28;20037;-61
2022/08/08 15:05:48;;;;;;;3.13;1.75;;;;;;;;;;5028426;28;20391;-61
2022/08/08 15:08:17;;;;;;;2.20;1.70;;;;;;;;;;5026356;28;20386;-60
2022/08/08 15:10:45;;;;;;;3.20;2.20;;;;;;;;;;5023552;28;20037;-61
2022/08/08 15:13:14;;;;;;;2.35;2.15;;;;;;;;;;5028093;28;20394;-60
2022/08/08 15:15:40;;;;;;;4.47;1.90;;;;;;;;;;5028593;28;20033;-62
2022/08/08 15:18:06;;;;;;;3.85;1.80;;;;;;;;;;5028576;28;20022;-62
2022/08/08 15:20:32;;;;;;;5.55;1.90;;;;;;;;;;5029231;28;20044;-62
2022/08/08 15:22:58;;;;;;;8.13;1.77;;;;;;;;;;5028056;28;20033;-61